Portada
METAR-TAF:

METAR-TAF

Aeroports :

Benson, Anglaterra

latitud: 51-37N, longitud: 001-05W, altitud: 63 m

Observació

L'informe es va fer fa 52 minuts, a les 18:50 UTC
Vent 9 kt del Est
Temperatura 21°C
Humitat 28%
Pressió 1024 hPa
Visibilitat 10 km o més

METAR: EGUB 291850Z AUTO 08009KT 9999 // NCD 21/02 Q1024

Hora: 20:42 (19:42 UTC)

Pronòstic

L'informe es va fer fa 9 hores i 2 minuts, a les 10:40 UTC
Pronòstic vàlid del 29 a les 12 UTC al 29 a les 16 UTC
Vent 9 kt del Est
Visibilitat 10 km o més
sense núvols per sota de 1500 mi sense presència de cumulonimbus.

TAF: EGUB 291040Z 2912/2916 10009KT CAVOK

Observacions i pronòstics meteorològics de més de 4000 aeroports (METAR i TAF).

Les estacions disponibles són els punts grocs i vermells al mapa.

Posi el ratolí al punt desitjat per veure el nom de l'estació.

Feu clic per veure les observacions i els pronòstics meteorològics.

Per canviar el mapa: feu clic els botons verds amb una creu de color negre per apropar; al botó verd amb un guió per allunyar la imatge; o en les fletxes verdes per a mapes adjacents.


METAR-TAF: